Cluster Springs, VA (24535)

7:53 PM EDT on September 02, 2014 (GMT -0400)
Alton community | Change Station
CLOSE
Current Station
Personal Weather Station
Location: Alton, VA
Elevation: 558 ft
Nearby Weather Stations

Elev 558 ft 36.58 °N, 79.02 °W | Updated 10 minutes ago

Partly Cloudy
Partly Cloudy
81.9 °F
Feels Like 88 °F
N
0.0
Wind Variable Wind from South

Today
High -- | Low -- °F
--% Chance of Precip.
Yesterday
High -- | Low -- °F
Precip. -- in
6:48 AM 7:42 PM
First Quarter, 56% visible
Pressure 29.90 in
Visibility -9999.0 miles
Clouds Mostly Cloudy 6500 ft
Heat Index 88 °F
Dew Point 75 °F
Humidity 79%
Rainfall 0.00 in
Snow Depth Not available.
UV 0 out of 12
Pollen 10.50 out of 12
Air Quality Not available.
Flu Activity Not available.
METAR KDAN 022253Z AUTO 21004KT BKN065 31/22 A2994 RMK AO2 SLP125 T03060217 $

More Conditions Fewer Conditions

Pressure 29.90 in
Visibility -9999.0 miles
Clouds Mostly Cloudy 6500 ft
Heat Index 88 °F
Dew Point 75 °F
Humidity 79%
Rainfall 0.00 in
Snow Depth Not available.
UV 0 out of 12
Pollen 10.50 out of 12
Air Quality Not available.
Flu Activity Not available.
METAR KDAN 022253Z AUTO 21004KT BKN065 31/22 A2994 RMK AO2 SLP125 T03060217 $

More Conditions Fewer Conditions

10-Day Weather Forecast

Almanac

Astronomy

Sep. 02, 2014 Rise Set
Actual Time 6:48 AM EDT 7:42 PM EDT
Civil Twilight 6:21 AM EDT 8:09 PM EDT
Nautical Twilight 5:50 AM EDT 8:40 PM EDT
Astronomical Twilight 5:18 AM EDT 9:12 PM EDT
Moon 2:19 PM EDT No Moon Set
Length of Visible Light 13h 47m
Length of Day
12h 54m
Tomorrow will be 2m 14s shorter.
First Quarter, 56% of the Moon is Illuminated
Today
First Quarter
Sep 8
Full
Sep 15
Last Quarter
Sep 24
New
Oct 1
First Quarter

Today's Extremes

State Highs State Lows

Community

WunderPhotos

Upload Photos

1,749,799 photos uploaded!

Nearby

Snow Depth

Station Depth Elevation
No new snow has been reported.

Earthquake Activity

City Distance Mag. Time & Date
No recent earthquake activity has been reported nearby.
Minimum magnitude displayed is 2.5.

Coastal Water Temperatures

Place Temperature
No Stations Reporting

Nearby Weather Stations